Aviation Digital Data Service (ADDS)

Output produced by METARs form (1050 UTC 17 January 2017)
found at http://aviationweather.gov/adds/metars/
 
KHYA 170908Z 1709/1806 27006KT P6SM SCT200 
     FM171400 32006KT P6SM BKN100 
     FM172300 10004KT P6SM -RA OVC050 
     FM180300 11010G19KT 4SM -RA OVC015